sensor_id;sensor_type;location;lat;lon;timestamp;temperature;humidity
67279;DHT22;54193;53.746;10.058;2024-02-04T00:00:38;6.97;83.88
67279;DHT22;54193;53.746;10.058;2024-02-04T00:03:24;7.01;83.84
67279;DHT22;54193;53.746;10.058;2024-02-04T00:06:10;6.95;83.56
67279;DHT22;54193;53.746;10.058;2024-02-04T00:08:56;6.97;83.50
67279;DHT22;54193;53.746;10.058;2024-02-04T00:11:41;6.80;83.85
67279;DHT22;54193;53.746;10.058;2024-02-04T00:14:27;6.75;84.29
67279;DHT22;54193;53.746;10.058;2024-02-04T00:17:13;6.78;84.02
67279;DHT22;54193;53.746;10.058;2024-02-04T00:20:00;6.83;84.07
67279;DHT22;54193;53.746;10.058;2024-02-04T00:22:46;6.76;84.20
67279;DHT22;54193;53.746;10.058;2024-02-04T00:25:32;6.78;84.26
67279;DHT22;54193;53.746;10.058;2024-02-04T00:28:17;6.80;84.39
67279;DHT22;54193;53.746;10.058;2024-02-04T00:31:04;6.67;84.66
67279;DHT22;54193;53.746;10.058;2024-02-04T00:33:49;6.71;84.71
67279;DHT22;54193;53.746;10.058;2024-02-04T00:36:35;6.88;84.52
67279;DHT22;54193;53.746;10.058;2024-02-04T00:39:21;6.75;85.03
67279;DHT22;54193;53.746;10.058;2024-02-04T00:42:06;6.75;84.94
67279;DHT22;54193;53.746;10.058;2024-02-04T00:44:52;6.67;85.15
67279;DHT22;54193;53.746;10.058;2024-02-04T00:47:38;6.61;85.00
67279;DHT22;54193;53.746;10.058;2024-02-04T00:50:23;6.73;84.99
67279;DHT22;54193;53.746;10.058;2024-02-04T00:53:09;6.76;84.88
67279;DHT22;54193;53.746;10.058;2024-02-04T00:55:54;6.72;84.75
67279;DHT22;54193;53.746;10.058;2024-02-04T00:58:40;6.61;85.10
67279;DHT22;54193;53.746;10.058;2024-02-04T01:01:26;6.53;85.38
67279;DHT22;54193;53.746;10.058;2024-02-04T01:04:12;6.46;85.64
67279;DHT22;54193;53.746;10.058;2024-02-04T01:06:57;6.64;85.13
67279;DHT22;54193;53.746;10.058;2024-02-04T01:09:43;6.69;85.18
67279;DHT22;54193;53.746;10.058;2024-02-04T01:12:28;6.68;85.14
67279;DHT22;54193;53.746;10.058;2024-02-04T01:15:14;6.72;85.30
67279;DHT22;54193;53.746;10.058;2024-02-04T01:18:00;6.75;85.06
67279;DHT22;54193;53.746;10.058;2024-02-04T01:20:45;6.83;84.65
67279;DHT22;54193;53.746;10.058;2024-02-04T01:23:31;6.86;84.62
67279;DHT22;54193;53.746;10.058;2024-02-04T01:26:16;6.92;84.76
67279;DHT22;54193;53.746;10.058;2024-02-04T01:29:02;6.85;84.68
67279;DHT22;54193;53.746;10.058;2024-02-04T01:31:47;6.95;84.68
67279;DHT22;54193;53.746;10.058;2024-02-04T01:34:33;7.03;84.21
67279;DHT22;54193;53.746;10.058;2024-02-04T01:37:19;6.93;84.29
67279;DHT22;54193;53.746;10.058;2024-02-04T01:40:05;7.04;83.94
67279;DHT22;54193;53.746;10.058;2024-02-04T01:42:51;7.14;83.62
67279;DHT22;54193;53.746;10.058;2024-02-04T01:45:36;7.17;83.41
67279;DHT22;54193;53.746;10.058;2024-02-04T01:48:22;7.26;83.28
67279;DHT22;54193;53.746;10.058;2024-02-04T01:51:08;7.37;82.73
67279;DHT22;54193;53.746;10.058;2024-02-04T01:53:53;7.32;82.80
67279;DHT22;54193;53.746;10.058;2024-02-04T01:56:39;7.38;82.28
67279;DHT22;54193;53.746;10.058;2024-02-04T01:59:27;7.50;82.24
67279;DHT22;54193;53.746;10.058;2024-02-04T02:02:15;7.44;82.29
67279;DHT22;54193;53.746;10.058;2024-02-04T02:05:01;7.52;82.10
67279;DHT22;54193;53.746;10.058;2024-02-04T02:07:47;7.37;82.05
67279;DHT22;54193;53.746;10.058;2024-02-04T02:10:38;7.45;81.69
67279;DHT22;54193;53.746;10.058;2024-02-04T02:13:29;7.55;81.77
67279;DHT22;54193;53.746;10.058;2024-02-04T02:16:18;7.51;81.93
67279;DHT22;54193;53.746;10.058;2024-02-04T02:19:12;7.48;81.79
67279;DHT22;54193;53.746;10.058;2024-02-04T02:25:30;7.28;82.01
67279;DHT22;54193;53.746;10.058;2024-02-04T02:28:16;7.32;82.08
67279;DHT22;54193;53.746;10.058;2024-02-04T02:31:01;7.30;82.39
67279;DHT22;54193;53.746;10.058;2024-02-04T02:33:47;7.23;82.73
67279;DHT22;54193;53.746;10.058;2024-02-04T02:36:40;7.10;82.84
67279;DHT22;54193;53.746;10.058;2024-02-04T02:39:35;7.20;82.76
67279;DHT22;54193;53.746;10.058;2024-02-04T02:42:22;7.13;83.02
67279;DHT22;54193;53.746;10.058;2024-02-04T02:45:09;7.04;83.24
67279;DHT22;54193;53.746;10.058;2024-02-04T02:47:56;6.90;83.47
67279;DHT22;54193;53.746;10.058;2024-02-04T02:50:42;6.92;83.45
67279;DHT22;54193;53.746;10.058;2024-02-04T02:53:28;6.93;83.62
67279;DHT22;54193;53.746;10.058;2024-02-04T02:56:13;6.93;83.56
67279;DHT22;54193;53.746;10.058;2024-02-04T02:58:59;6.95;83.47
67279;DHT22;54193;53.746;10.058;2024-02-04T03:01:44;6.85;83.69
67279;DHT22;54193;53.746;10.058;2024-02-04T03:04:30;6.89;83.32
67279;DHT22;54193;53.746;10.058;2024-02-04T03:07:16;6.88;83.73
67279;DHT22;54193;53.746;10.058;2024-02-04T03:10:02;6.90;83.47
67279;DHT22;54193;53.746;10.058;2024-02-04T03:12:48;6.96;83.38
67279;DHT22;54193;53.746;10.058;2024-02-04T03:15:33;6.82;83.55
67279;DHT22;54193;53.746;10.058;2024-02-04T03:18:19;6.93;83.55
67279;DHT22;54193;53.746;10.058;2024-02-04T03:21:11;6.90;83.38
67279;DHT22;54193;53.746;10.058;2024-02-04T03:23:57;6.96;83.39
67279;DHT22;54193;53.746;10.058;2024-02-04T03:26:43;6.89;83.65
67279;DHT22;54193;53.746;10.058;2024-02-04T03:29:28;6.93;83.52
67279;DHT22;54193;53.746;10.058;2024-02-04T03:32:14;7.03;83.25
67279;DHT22;54193;53.746;10.058;2024-02-04T03:35:00;6.93;83.25
67279;DHT22;54193;53.746;10.058;2024-02-04T03:37:46;7.03;83.26
67279;DHT22;54193;53.746;10.058;2024-02-04T03:40:32;6.96;83.42
67279;DHT22;54193;53.746;10.058;2024-02-04T03:43:17;6.86;83.61
67279;DHT22;54193;53.746;10.058;2024-02-04T03:46:03;6.75;83.84
67279;DHT22;54193;53.746;10.058;2024-02-04T03:48:49;6.80;83.83
67279;DHT22;54193;53.746;10.058;2024-02-04T03:51:34;6.73;84.15
67279;DHT22;54193;53.746;10.058;2024-02-04T03:54:20;6.69;84.15
67279;DHT22;54193;53.746;10.058;2024-02-04T03:57:06;6.72;84.19
67279;DHT22;54193;53.746;10.058;2024-02-04T03:59:51;6.76;84.24
67279;DHT22;54193;53.746;10.058;2024-02-04T04:02:37;6.76;84.23
67279;DHT22;54193;53.746;10.058;2024-02-04T04:05:22;6.64;84.55
67279;DHT22;54193;53.746;10.058;2024-02-04T04:08:08;6.58;84.77
67279;DHT22;54193;53.746;10.058;2024-02-04T04:10:54;6.67;84.75
67279;DHT22;54193;53.746;10.058;2024-02-04T04:13:39;6.61;84.88
67279;DHT22;54193;53.746;10.058;2024-02-04T04:16:25;6.65;84.76
67279;DHT22;54193;53.746;10.058;2024-02-04T04:19:11;6.53;84.93
67279;DHT22;54193;53.746;10.058;2024-02-04T04:21:56;6.58;85.35
67279;DHT22;54193;53.746;10.058;2024-02-04T04:24:42;6.56;85.38
67279;DHT22;54193;53.746;10.058;2024-02-04T04:27:27;6.48;85.67
67279;DHT22;54193;53.746;10.058;2024-02-04T04:30:13;6.48;85.54
67279;DHT22;54193;53.746;10.058;2024-02-04T04:32:59;6.55;85.66
67279;DHT22;54193;53.746;10.058;2024-02-04T04:35:44;6.55;85.72
67279;DHT22;54193;53.746;10.058;2024-02-04T04:38:30;6.51;85.76
67279;DHT22;54193;53.746;10.058;2024-02-04T04:41:16;6.46;85.98
67279;DHT22;54193;53.746;10.058;2024-02-04T04:44:02;6.40;85.88
67279;DHT22;54193;53.746;10.058;2024-02-04T04:46:48;6.46;86.23
67279;DHT22;54193;53.746;10.058;2024-02-04T04:49:34;6.52;86.10
67279;DHT22;54193;53.746;10.058;2024-02-04T04:52:19;6.45;86.47
67279;DHT22;54193;53.746;10.058;2024-02-04T04:55:05;6.46;86.32
67279;DHT22;54193;53.746;10.058;2024-02-04T04:57:51;6.48;86.14
67279;DHT22;54193;53.746;10.058;2024-02-04T05:00:37;6.35;86.47
67279;DHT22;54193;53.746;10.058;2024-02-04T05:03:23;6.42;86.41
67279;DHT22;54193;53.746;10.058;2024-02-04T05:06:08;6.46;86.51
67279;DHT22;54193;53.746;10.058;2024-02-04T05:08:54;6.41;86.25
67279;DHT22;54193;53.746;10.058;2024-02-04T05:11:40;6.41;86.52
67279;DHT22;54193;53.746;10.058;2024-02-04T05:14:25;6.37;86.48
67279;DHT22;54193;53.746;10.058;2024-02-04T05:17:11;6.37;86.91
67279;DHT22;54193;53.746;10.058;2024-02-04T05:19:57;6.35;86.86
67279;DHT22;54193;53.746;10.058;2024-02-04T05:22:42;6.37;86.62
67279;DHT22;54193;53.746;10.058;2024-02-04T05:25:28;6.41;86.77
67279;DHT22;54193;53.746;10.058;2024-02-04T05:28:14;6.40;86.85
67279;DHT22;54193;53.746;10.058;2024-02-04T05:31:01;6.41;87.01
67279;DHT22;54193;53.746;10.058;2024-02-04T05:33:47;6.42;86.81
67279;DHT22;54193;53.746;10.058;2024-02-04T05:36:33;6.40;86.77
67279;DHT22;54193;53.746;10.058;2024-02-04T05:39:19;6.48;86.87
67279;DHT22;54193;53.746;10.058;2024-02-04T05:42:04;6.64;86.45
67279;DHT22;54193;53.746;10.058;2024-02-04T05:44:50;6.65;86.33
67279;DHT22;54193;53.746;10.058;2024-02-04T05:47:36;6.49;86.42
67279;DHT22;54193;53.746;10.058;2024-02-04T05:50:22;6.55;86.31
67279;DHT22;54193;53.746;10.058;2024-02-04T05:53:07;6.52;86.74
67279;DHT22;54193;53.746;10.058;2024-02-04T05:55:53;6.40;86.88
67279;DHT22;54193;53.746;10.058;2024-02-04T05:58:39;6.34;86.94
67279;DHT22;54193;53.746;10.058;2024-02-04T06:01:25;6.38;86.98
67279;DHT22;54193;53.746;10.058;2024-02-04T06:04:11;6.41;87.06
67279;DHT22;54193;53.746;10.058;2024-02-04T06:06:56;6.52;86.66
67279;DHT22;54193;53.746;10.058;2024-02-04T06:09:42;6.61;86.79
67279;DHT22;54193;53.746;10.058;2024-02-04T06:12:28;6.67;86.45
67279;DHT22;54193;53.746;10.058;2024-02-04T06:15:15;6.75;86.10
67279;DHT22;54193;53.746;10.058;2024-02-04T06:18:01;6.72;86.37
67279;DHT22;54193;53.746;10.058;2024-02-04T06:20:46;6.71;86.47
67279;DHT22;54193;53.746;10.058;2024-02-04T06:23:33;6.69;86.07
67279;DHT22;54193;53.746;10.058;2024-02-04T06:26:18;6.79;86.13
67279;DHT22;54193;53.746;10.058;2024-02-04T06:29:04;6.73;86.42
67279;DHT22;54193;53.746;10.058;2024-02-04T06:31:50;6.64;86.91
67279;DHT22;54193;53.746;10.058;2024-02-04T06:34:36;6.52;86.86
67279;DHT22;54193;53.746;10.058;2024-02-04T06:37:22;6.71;86.16
67279;DHT22;54193;53.746;10.058;2024-02-04T06:40:09;6.73;86.05
67279;DHT22;54193;53.746;10.058;2024-02-04T06:42:55;6.85;85.92
67279;DHT22;54193;53.746;10.058;2024-02-04T06:45:41;6.78;86.42
67279;DHT22;54193;53.746;10.058;2024-02-04T06:48:26;6.78;86.08
67279;DHT22;54193;53.746;10.058;2024-02-04T06:51:12;6.67;86.25
67279;DHT22;54193;53.746;10.058;2024-02-04T06:53:57;6.82;85.84
67279;DHT22;54193;53.746;10.058;2024-02-04T06:56:43;6.79;86.26
67279;DHT22;54193;53.746;10.058;2024-02-04T06:59:29;6.79;85.92
67279;DHT22;54193;53.746;10.058;2024-02-04T07:02:14;6.78;85.80
67279;DHT22;54193;53.746;10.058;2024-02-04T07:05:00;6.78;86.20
67279;DHT22;54193;53.746;10.058;2024-02-04T07:07:46;6.85;85.62
67279;DHT22;54193;53.746;10.058;2024-02-04T07:10:32;6.90;85.90
67279;DHT22;54193;53.746;10.058;2024-02-04T07:13:18;6.85;85.69
67279;DHT22;54193;53.746;10.058;2024-02-04T07:16:03;6.97;85.35
67279;DHT22;54193;53.746;10.058;2024-02-04T07:18:49;6.88;85.55
67279;DHT22;54193;53.746;10.058;2024-02-04T07:21:35;6.92;85.58
67279;DHT22;54193;53.746;10.058;2024-02-04T07:24:20;7.00;85.43
67279;DHT22;54193;53.746;10.058;2024-02-04T07:27:06;6.92;85.26
67279;DHT22;54193;53.746;10.058;2024-02-04T07:29:52;6.96;84.99
67279;DHT22;54193;53.746;10.058;2024-02-04T07:32:40;7.01;85.17
67279;DHT22;54193;53.746;10.058;2024-02-04T07:35:26;7.01;85.16
67279;DHT22;54193;53.746;10.058;2024-02-04T07:38:11;6.97;85.29
67279;DHT22;54193;53.746;10.058;2024-02-04T07:40:57;6.89;85.24
67279;DHT22;54193;53.746;10.058;2024-02-04T07:43:44;7.04;85.18
67279;DHT22;54193;53.746;10.058;2024-02-04T07:46:30;6.89;85.13
67279;DHT22;54193;53.746;10.058;2024-02-04T07:49:16;6.99;85.22
67279;DHT22;54193;53.746;10.058;2024-02-04T07:52:01;6.96;85.22
67279;DHT22;54193;53.746;10.058;2024-02-04T07:54:47;7.07;85.07
67279;DHT22;54193;53.746;10.058;2024-02-04T07:57:33;7.01;84.95
67279;DHT22;54193;53.746;10.058;2024-02-04T08:00:18;7.06;85.16
67279;DHT22;54193;53.746;10.058;2024-02-04T08:03:05;7.23;84.88
67279;DHT22;54193;53.746;10.058;2024-02-04T08:05:51;7.16;84.95
67279;DHT22;54193;53.746;10.058;2024-02-04T08:08:36;7.18;85.00
67279;DHT22;54193;53.746;10.058;2024-02-04T08:11:22;7.13;84.49
67279;DHT22;54193;53.746;10.058;2024-02-04T08:14:08;7.10;84.65
67279;DHT22;54193;53.746;10.058;2024-02-04T08:16:54;7.26;84.42
67279;DHT22;54193;53.746;10.058;2024-02-04T08:19:39;7.45;84.22
67279;DHT22;54193;53.746;10.058;2024-02-04T08:22:25;7.40;83.85
67279;DHT22;54193;53.746;10.058;2024-02-04T08:25:11;7.35;84.09
67279;DHT22;54193;53.746;10.058;2024-02-04T08:27:58;7.37;84.09
67279;DHT22;54193;53.746;10.058;2024-02-04T08:30:43;7.41;83.93
67279;DHT22;54193;53.746;10.058;2024-02-04T08:33:29;7.44;84.09
67279;DHT22;54193;53.746;10.058;2024-02-04T08:36:15;7.58;83.99
67279;DHT22;54193;53.746;10.058;2024-02-04T08:39:01;7.37;83.90
67279;DHT22;54193;53.746;10.058;2024-02-04T08:41:46;7.34;83.80
67279;DHT22;54193;53.746;10.058;2024-02-04T08:44:32;7.47;83.54
67279;DHT22;54193;53.746;10.058;2024-02-04T08:47:17;7.56;83.39
67279;DHT22;54193;53.746;10.058;2024-02-04T08:50:04;7.69;82.62
67279;DHT22;54193;53.746;10.058;2024-02-04T08:52:50;7.48;83.72
67279;DHT22;54193;53.746;10.058;2024-02-04T08:55:36;7.55;83.22
67279;DHT22;54193;53.746;10.058;2024-02-04T08:58:22;7.64;83.29
67279;DHT22;54193;53.746;10.058;2024-02-04T09:01:07;7.54;83.27
67279;DHT22;54193;53.746;10.058;2024-02-04T09:03:53;7.56;83.23
67279;DHT22;54193;53.746;10.058;2024-02-04T09:06:39;7.55;82.94
67279;DHT22;54193;53.746;10.058;2024-02-04T09:09:25;7.65;82.91
67279;DHT22;54193;53.746;10.058;2024-02-04T09:12:10;7.69;83.13
67279;DHT22;54193;53.746;10.058;2024-02-04T09:14:56;7.68;83.02
67279;DHT22;54193;53.746;10.058;2024-02-04T09:17:41;7.89;82.53
67279;DHT22;54193;53.746;10.058;2024-02-04T09:20:27;7.97;82.51
67279;DHT22;54193;53.746;10.058;2024-02-04T09:23:13;7.69;82.69
67279;DHT22;54193;53.746;10.058;2024-02-04T09:25:58;7.83;82.21
67279;DHT22;54193;53.746;10.058;2024-02-04T09:28:44;7.83;82.23
67279;DHT22;54193;53.746;10.058;2024-02-04T09:31:30;7.89;81.73
67279;DHT22;54193;53.746;10.058;2024-02-04T09:34:16;7.78;82.20
67279;DHT22;54193;53.746;10.058;2024-02-04T09:37:01;7.92;81.54
67279;DHT22;54193;53.746;10.058;2024-02-04T09:39:48;7.97;81.89
67279;DHT22;54193;53.746;10.058;2024-02-04T09:42:33;7.87;81.47
67279;DHT22;54193;53.746;10.058;2024-02-04T09:45:20;7.97;81.75
67279;DHT22;54193;53.746;10.058;2024-02-04T09:48:06;7.90;81.57
67279;DHT22;54193;53.746;10.058;2024-02-04T09:50:53;7.81;81.75
67279;DHT22;54193;53.746;10.058;2024-02-04T09:53:43;7.73;82.04
67279;DHT22;54193;53.746;10.058;2024-02-04T09:56:29;7.97;81.83
67279;DHT22;54193;53.746;10.058;2024-02-04T09:59:15;7.93;82.11
67279;DHT22;54193;53.746;10.058;2024-02-04T10:02:03;7.97;81.90
67279;DHT22;54193;53.746;10.058;2024-02-04T10:04:49;7.81;81.77
67279;DHT22;54193;53.746;10.058;2024-02-04T10:07:35;8.04;81.66
67279;DHT22;54193;53.746;10.058;2024-02-04T10:10:21;8.07;81.86
67279;DHT22;54193;53.746;10.058;2024-02-04T10:13:08;8.07;81.76
67279;DHT22;54193;53.746;10.058;2024-02-04T10:15:54;8.06;81.79
67279;DHT22;54193;53.746;10.058;2024-02-04T10:18:47;7.99;81.80
67279;DHT22;54193;53.746;10.058;2024-02-04T10:21:34;8.21;81.37
67279;DHT22;54193;53.746;10.058;2024-02-04T10:24:21;8.14;81.08
67279;DHT22;54193;53.746;10.058;2024-02-04T10:27:06;8.26;81.46
67279;DHT22;54193;53.746;10.058;2024-02-04T10:29:52;8.09;81.16
67279;DHT22;54193;53.746;10.058;2024-02-04T10:32:38;8.20;80.90
67279;DHT22;54193;53.746;10.058;2024-02-04T10:35:24;8.30;80.87
67279;DHT22;54193;53.746;10.058;2024-02-04T10:38:09;8.37;80.99
67279;DHT22;54193;53.746;10.058;2024-02-04T10:40:59;8.36;80.43
67279;DHT22;54193;53.746;10.058;2024-02-04T10:43:45;8.30;80.61
67279;DHT22;54193;53.746;10.058;2024-02-04T10:46:33;8.37;80.33
67279;DHT22;54193;53.746;10.058;2024-02-04T10:49:19;8.47;80.28
67279;DHT22;54193;53.746;10.058;2024-02-04T10:52:07;8.34;80.27
67279;DHT22;54193;53.746;10.058;2024-02-04T10:54:53;8.61;80.02
67279;DHT22;54193;53.746;10.058;2024-02-04T10:57:39;8.61;80.00
67279;DHT22;54193;53.746;10.058;2024-02-04T11:00:25;8.59;79.84
67279;DHT22;54193;53.746;10.058;2024-02-04T11:03:12;8.58;79.83
67279;DHT22;54193;53.746;10.058;2024-02-04T11:05:59;8.54;79.86
67279;DHT22;54193;53.746;10.058;2024-02-04T11:08:46;8.49;80.05
67279;DHT22;54193;53.746;10.058;2024-02-04T11:11:32;8.65;79.84
67279;DHT22;54193;53.746;10.058;2024-02-04T11:14:20;8.51;80.07
67279;DHT22;54193;53.746;10.058;2024-02-04T11:17:29;8.57;80.13
67279;DHT22;54193;53.746;10.058;2024-02-04T11:20:57;8.49;80.10
67279;DHT22;54193;53.746;10.058;2024-02-04T11:27:00;8.57;79.87
67279;DHT22;54193;53.746;10.058;2024-02-04T11:29:46;8.64;79.34
67279;DHT22;54193;53.746;10.058;2024-02-04T11:32:34;8.58;79.95
67279;DHT22;54193;53.746;10.058;2024-02-04T11:35:20;8.64;79.99
67279;DHT22;54193;53.746;10.058;2024-02-04T11:38:08;8.71;79.89
67279;DHT22;54193;53.746;10.058;2024-02-04T11:40:54;8.59;79.80
67279;DHT22;54193;53.746;10.058;2024-02-04T11:43:40;8.95;79.47
67279;DHT22;54193;53.746;10.058;2024-02-04T11:46:32;8.82;79.52
67279;DHT22;54193;53.746;10.058;2024-02-04T11:49:24;8.72;79.97
67279;DHT22;54193;53.746;10.058;2024-02-04T11:52:18;8.62;80.10
67279;DHT22;54193;53.746;10.058;2024-02-04T11:55:05;8.52;80.11
67279;DHT22;54193;53.746;10.058;2024-02-04T11:57:54;8.73;80.12
67279;DHT22;54193;53.746;10.058;2024-02-04T12:00:42;8.72;80.02
67279;DHT22;54193;53.746;10.058;2024-02-04T12:03:33;8.76;79.90
67279;DHT22;54193;53.746;10.058;2024-02-04T12:06:19;8.73;79.97
67279;DHT22;54193;53.746;10.058;2024-02-04T12:09:05;8.79;79.61
67279;DHT22;54193;53.746;10.058;2024-02-04T12:11:53;8.75;80.25
67279;DHT22;54193;53.746;10.058;2024-02-04T12:14:39;8.85;79.43
67279;DHT22;54193;53.746;10.058;2024-02-04T12:17:25;8.90;79.44
67279;DHT22;54193;53.746;10.058;2024-02-04T12:20:11;8.96;79.29
67279;DHT22;54193;53.746;10.058;2024-02-04T12:22:57;8.99;79.14
67279;DHT22;54193;53.746;10.058;2024-02-04T12:25:42;8.96;79.32
67279;DHT22;54193;53.746;10.058;2024-02-04T12:28:28;8.86;79.42
67279;DHT22;54193;53.746;10.058;2024-02-04T12:31:21;8.89;79.35
67279;DHT22;54193;53.746;10.058;2024-02-04T12:34:08;9.16;79.01
67279;DHT22;54193;53.746;10.058;2024-02-04T12:37:00;8.90;79.04
67279;DHT22;54193;53.746;10.058;2024-02-04T12:39:46;8.99;79.39
67279;DHT22;54193;53.746;10.058;2024-02-04T12:42:32;8.95;79.34
67279;DHT22;54193;53.746;10.058;2024-02-04T12:45:17;9.06;79.51
67279;DHT22;54193;53.746;10.058;2024-02-04T12:48:03;9.23;79.21
67279;DHT22;54193;53.746;10.058;2024-02-04T12:50:49;8.99;79.51
67279;DHT22;54193;53.746;10.058;2024-02-04T12:53:35;9.12;79.06
67279;DHT22;54193;53.746;10.058;2024-02-04T12:56:20;9.13;79.29
67279;DHT22;54193;53.746;10.058;2024-02-04T12:59:08;9.04;79.69
67279;DHT22;54193;53.746;10.058;2024-02-04T13:01:58;8.78;79.85
67279;DHT22;54193;53.746;10.058;2024-02-04T13:04:44;9.38;78.86
67279;DHT22;54193;53.746;10.058;2024-02-04T13:07:29;9.06;79.07
67279;DHT22;54193;53.746;10.058;2024-02-04T13:10:15;9.30;78.77
67279;DHT22;54193;53.746;10.058;2024-02-04T13:13:08;9.07;79.34
67279;DHT22;54193;53.746;10.058;2024-02-04T13:15:54;9.13;79.26
67279;DHT22;54193;53.746;10.058;2024-02-04T13:18:39;9.13;78.87
67279;DHT22;54193;53.746;10.058;2024-02-04T13:21:25;9.07;79.12
67279;DHT22;54193;53.746;10.058;2024-02-04T13:24:11;9.06;79.31
67279;DHT22;54193;53.746;10.058;2024-02-04T13:26:57;9.23;79.03
67279;DHT22;54193;53.746;10.058;2024-02-04T13:29:42;9.13;79.59
67279;DHT22;54193;53.746;10.058;2024-02-04T13:32:28;9.04;79.06
67279;DHT22;54193;53.746;10.058;2024-02-04T13:35:14;8.99;79.03
67279;DHT22;54193;53.746;10.058;2024-02-04T13:38:01;9.14;78.88
67279;DHT22;54193;53.746;10.058;2024-02-04T13:40:47;9.27;79.34
67279;DHT22;54193;53.746;10.058;2024-02-04T13:43:33;9.06;79.60
67279;DHT22;54193;53.746;10.058;2024-02-04T13:46:19;9.12;79.32
67279;DHT22;54193;53.746;10.058;2024-02-04T13:49:04;9.10;79.13
67279;DHT22;54193;53.746;10.058;2024-02-04T13:51:51;9.10;79.64
67279;DHT22;54193;53.746;10.058;2024-02-04T13:54:37;9.06;79.50
67279;DHT22;54193;53.746;10.058;2024-02-04T13:57:22;9.14;79.63
67279;DHT22;54193;53.746;10.058;2024-02-04T14:00:08;9.10;79.59
67279;DHT22;54193;53.746;10.058;2024-02-04T14:02:54;8.96;79.76
67279;DHT22;54193;53.746;10.058;2024-02-04T14:05:40;9.07;79.82
67279;DHT22;54193;53.746;10.058;2024-02-04T14:08:26;9.03;80.11
67279;DHT22;54193;53.746;10.058;2024-02-04T14:11:11;9.00;79.68
67279;DHT22;54193;53.746;10.058;2024-02-04T14:13:57;9.10;79.85
67279;DHT22;54193;53.746;10.058;2024-02-04T14:16:43;8.92;80.45
67279;DHT22;54193;53.746;10.058;2024-02-04T14:19:29;8.82;80.43
67279;DHT22;54193;53.746;10.058;2024-02-04T14:22:15;8.86;80.09
67279;DHT22;54193;53.746;10.058;2024-02-04T14:25:02;8.83;80.52
67279;DHT22;54193;53.746;10.058;2024-02-04T14:27:48;8.92;80.32
67279;DHT22;54193;53.746;10.058;2024-02-04T14:30:34;8.90;80.72
67279;DHT22;54193;53.746;10.058;2024-02-04T14:33:20;8.89;80.68
67279;DHT22;54193;53.746;10.058;2024-02-04T14:36:08;8.83;80.85
67279;DHT22;54193;53.746;10.058;2024-02-04T14:38:55;8.76;80.89
67279;DHT22;54193;53.746;10.058;2024-02-04T14:41:43;8.83;80.93
67279;DHT22;54193;53.746;10.058;2024-02-04T14:44:29;8.90;80.61
67279;DHT22;54193;53.746;10.058;2024-02-04T14:47:15;8.90;80.92
67279;DHT22;54193;53.746;10.058;2024-02-04T14:50:00;8.79;81.41
67279;DHT22;54193;53.746;10.058;2024-02-04T14:52:46;8.82;81.53
67279;DHT22;54193;53.746;10.058;2024-02-04T14:55:32;8.96;81.33
67279;DHT22;54193;53.746;10.058;2024-02-04T14:58:18;8.73;81.68
67279;DHT22;54193;53.746;10.058;2024-02-04T15:01:04;8.61;82.68
67279;DHT22;54193;53.746;10.058;2024-02-04T15:03:50;8.45;82.57
67279;DHT22;54193;53.746;10.058;2024-02-04T15:06:36;8.52;82.50
67279;DHT22;54193;53.746;10.058;2024-02-04T15:09:22;8.62;82.43
67279;DHT22;54193;53.746;10.058;2024-02-04T15:12:08;8.45;82.63
67279;DHT22;54193;53.746;10.058;2024-02-04T15:14:54;8.61;82.94
67279;DHT22;54193;53.746;10.058;2024-02-04T15:17:40;8.49;82.55
67279;DHT22;54193;53.746;10.058;2024-02-04T15:20:26;8.64;82.74
67279;DHT22;54193;53.746;10.058;2024-02-04T15:23:12;8.62;82.80
67279;DHT22;54193;53.746;10.058;2024-02-04T15:25:58;8.47;82.63
67279;DHT22;54193;53.746;10.058;2024-02-04T15:28:44;8.58;83.01
67279;DHT22;54193;53.746;10.058;2024-02-04T15:31:31;8.49;82.71
67279;DHT22;54193;53.746;10.058;2024-02-04T15:34:19;8.45;82.74
67279;DHT22;54193;53.746;10.058;2024-02-04T15:37:04;8.58;83.12
67279;DHT22;54193;53.746;10.058;2024-02-04T15:39:52;8.49;83.06
67279;DHT22;54193;53.746;10.058;2024-02-04T15:42:41;8.64;83.30
67279;DHT22;54193;53.746;10.058;2024-02-04T15:45:27;8.44;83.94
67279;DHT22;54193;53.746;10.058;2024-02-04T15:48:17;8.47;84.11
67279;DHT22;54193;53.746;10.058;2024-02-04T15:51:04;8.30;84.80
67279;DHT22;54193;53.746;10.058;2024-02-04T15:53:51;8.28;85.22
67279;DHT22;54193;53.746;10.058;2024-02-04T15:56:41;8.23;85.07
67279;DHT22;54193;53.746;10.058;2024-02-04T15:59:37;8.26;85.38
67279;DHT22;54193;53.746;10.058;2024-02-04T16:02:26;8.21;85.72
67279;DHT22;54193;53.746;10.058;2024-02-04T16:05:13;8.16;86.14
67279;DHT22;54193;53.746;10.058;2024-02-04T16:07:59;8.26;86.47
67279;DHT22;54193;53.746;10.058;2024-02-04T16:10:45;8.11;86.74
67279;DHT22;54193;53.746;10.058;2024-02-04T16:13:36;8.11;87.45
67279;DHT22;54193;53.746;10.058;2024-02-04T16:16:33;8.10;87.63
67279;DHT22;54193;53.746;10.058;2024-02-04T16:19:20;8.16;87.59
67279;DHT22;54193;53.746;10.058;2024-02-04T16:22:05;8.16;87.24
67279;DHT22;54193;53.746;10.058;2024-02-04T16:24:51;8.04;87.50
67279;DHT22;54193;53.746;10.058;2024-02-04T16:27:37;7.90;88.29
67279;DHT22;54193;53.746;10.058;2024-02-04T16:30:22;7.96;88.33
67279;DHT22;54193;53.746;10.058;2024-02-04T16:33:08;8.07;88.08
67279;DHT22;54193;53.746;10.058;2024-02-04T16:35:54;8.17;88.00
67279;DHT22;54193;53.746;10.058;2024-02-04T16:38:40;8.02;88.10
67279;DHT22;54193;53.746;10.058;2024-02-04T16:41:25;8.07;88.09
67279;DHT22;54193;53.746;10.058;2024-02-04T16:44:11;8.09;88.13
67279;DHT22;54193;53.746;10.058;2024-02-04T16:46:59;7.93;88.49
67279;DHT22;54193;53.746;10.058;2024-02-04T16:49:44;7.94;88.35
67279;DHT22;54193;53.746;10.058;2024-02-04T16:52:32;7.89;88.75
67279;DHT22;54193;53.746;10.058;2024-02-04T16:55:18;7.94;88.84
67279;DHT22;54193;53.746;10.058;2024-02-04T16:58:03;7.89;88.81
67279;DHT22;54193;53.746;10.058;2024-02-04T17:00:50;7.94;88.70
67279;DHT22;54193;53.746;10.058;2024-02-04T17:03:35;7.93;88.64
67279;DHT22;54193;53.746;10.058;2024-02-04T17:06:21;7.86;89.11
67279;DHT22;54193;53.746;10.058;2024-02-04T17:09:08;8.04;88.95
67279;DHT22;54193;53.746;10.058;2024-02-04T17:11:59;7.89;89.03
67279;DHT22;54193;53.746;10.058;2024-02-04T17:14:47;7.92;89.60
67279;DHT22;54193;53.746;10.058;2024-02-04T17:17:35;7.90;89.93
67279;DHT22;54193;53.746;10.058;2024-02-04T17:20:24;8.14;89.33
67279;DHT22;54193;53.746;10.058;2024-02-04T17:23:13;7.97;89.56
67279;DHT22;54193;53.746;10.058;2024-02-04T17:25:59;7.97;89.91
67279;DHT22;54193;53.746;10.058;2024-02-04T17:28:46;7.87;90.18
67279;DHT22;54193;53.746;10.058;2024-02-04T17:31:32;7.90;90.51
67279;DHT22;54193;53.746;10.058;2024-02-04T17:34:18;7.86;90.42
67279;DHT22;54193;53.746;10.058;2024-02-04T17:37:06;7.85;90.26